Time;durP1;ratioP1;P1;durP2;ratioP2;P2;SDS_P1;SDS_P2;PMS_P1;PMS_P2;Temp;Humidity;BMP_temperature;BMP_pressure;BME280_temperature;BME280_humidity;BME280_pressure;Samples;Min_cycle;Max_cycle;Signal;HPM_P1;HPM_P2
2023/03/02 00:02:10;;;;;;;20.40;9.27;;;;;;;;;;5053662;28;20029;-77
2023/03/02 00:04:39;;;;;;;17.57;9.53;;;;;;;;;;5040401;28;20036;-76
2023/03/02 00:07:07;;;;;;;17.30;9.77;;;;;;;;;;5036459;28;20280;-77
2023/03/02 00:09:36;;;;;;;20.10;9.53;;;;;;;;;;5052973;28;20336;-77
2023/03/02 00:12:03;;;;;;;18.17;10.00;;;;;;;;;;5056333;28;20425;-76
2023/03/02 00:14:29;;;;;;;22.47;10.40;;;;;;;;;;5055456;28;20373;-77
2023/03/02 00:16:55;;;;;;;21.07;10.40;;;;;;;;;;5056811;28;20294;-77
2023/03/02 00:19:21;;;;;;;21.47;10.53;;;;;;;;;;5058788;28;20282;-76
2023/03/02 00:21:47;;;;;;;18.30;9.93;;;;;;;;;;5058945;28;20270;-76
2023/03/02 00:24:16;;;;;;;19.07;10.13;;;;;;;;;;5058982;28;20300;-76
2023/03/02 00:26:42;;;;;;;17.73;9.67;;;;;;;;;;5059327;28;20040;-77
2023/03/02 00:29:08;;;;;;;18.03;9.67;;;;;;;;;;5043709;28;20317;-77
2023/03/02 00:31:34;;;;;;;18.43;9.70;;;;;;;;;;5058555;28;20279;-77
2023/03/02 00:34:03;;;;;;;19.10;9.77;;;;;;;;;;5056315;28;20039;-77
2023/03/02 00:36:29;;;;;;;18.73;9.33;;;;;;;;;;5047308;28;20340;-76
2023/03/02 00:38:56;;;;;;;17.60;10.23;;;;;;;;;;5045623;28;20290;-77
2023/03/02 00:41:22;;;;;;;21.07;10.43;;;;;;;;;;5039329;28;20623;-76
2023/03/02 00:43:48;;;;;;;20.53;10.20;;;;;;;;;;5044095;28;20283;-77
2023/03/02 00:46:16;;;;;;;18.20;9.70;;;;;;;;;;5058242;28;20336;-76
2023/03/02 00:48:42;;;;;;;18.50;10.43;;;;;;;;;;5059396;28;20832;-76
2023/03/02 00:51:09;;;;;;;21.23;10.13;;;;;;;;;;5056098;28;20275;-76
2023/03/02 00:53:35;;;;;;;22.87;10.63;;;;;;;;;;5058882;28;20275;-77
2023/03/02 00:56:02;;;;;;;20.50;10.30;;;;;;;;;;5044376;28;20295;-76
2023/03/02 00:58:30;;;;;;;17.37;9.97;;;;;;;;;;5055917;28;20279;-76
2023/03/02 01:00:56;;;;;;;17.67;10.13;;;;;;;;;;5057238;28;20267;-76
2023/03/02 01:03:25;;;;;;;16.23;9.17;;;;;;;;;;5057224;28;20279;-75
2023/03/02 01:05:55;;;;;;;23.47;11.03;;;;;;;;;;5040456;28;20404;-76
2023/03/02 01:08:21;;;;;;;18.90;9.87;;;;;;;;;;5042588;28;20266;-77
2023/03/02 01:10:48;;;;;;;18.60;9.43;;;;;;;;;;5056472;28;20723;-77
2023/03/02 01:13:16;;;;;;;19.47;10.23;;;;;;;;;;5058365;28;20283;-76
2023/03/02 01:15:42;;;;;;;18.17;10.27;;;;;;;;;;5055802;28;20287;-76
2023/03/02 01:18:08;;;;;;;17.63;10.23;;;;;;;;;;5057718;28;20303;-77
2023/03/02 01:20:34;;;;;;;19.17;10.70;;;;;;;;;;5058159;28;20838;-75
2023/03/02 01:23:00;;;;;;;20.17;9.70;;;;;;;;;;5056224;28;20283;-76
2023/03/02 01:25:26;;;;;;;21.47;12.10;;;;;;;;;;5042142;28;20290;-76
2023/03/02 01:27:52;;;;;;;20.27;11.03;;;;;;;;;;5043020;28;20043;-77
2023/03/02 01:30:18;;;;;;;17.33;9.57;;;;;;;;;;5039109;28;20283;-77
2023/03/02 01:32:44;;;;;;;21.37;10.87;;;;;;;;;;5060053;28;20295;-77
2023/03/02 01:35:10;;;;;;;19.67;11.07;;;;;;;;;;5057575;28;20313;-77
2023/03/02 01:37:41;;;;;;;16.10;9.73;;;;;;;;;;5056516;28;20742;-77
2023/03/02 01:40:08;;;;;;;17.57;10.20;;;;;;;;;;5059150;28;20278;-77
2023/03/02 01:42:40;;;;;;;16.70;9.67;;;;;;;;;;5053665;28;21095;-77
2023/03/02 01:45:26;;;;;;;22.10;9.60;;;;;;;;;;5039829;28;20623;-77
2023/03/02 01:47:52;;;;;;;18.30;9.63;;;;;;;;;;5057123;28;20747;-77
2023/03/02 01:50:24;;;;;;;19.40;9.70;;;;;;;;;;5056439;28;20282;-76
2023/03/02 01:52:50;;;;;;;18.50;9.60;;;;;;;;;;5042938;28;21027;-77
2023/03/02 01:55:19;;;;;;;18.87;9.87;;;;;;;;;;5058516;28;20291;-76
2023/03/02 01:57:47;;;;;;;17.40;10.30;;;;;;;;;;5054056;28;20398;-76
2023/03/02 02:00:20;;;;;;;20.77;10.60;;;;;;;;;;5056357;28;20275;-76
2023/03/02 02:02:46;;;;;;;19.90;10.18;;;;;;;;;;5056076;28;20273;-76
2023/03/02 02:05:15;;;;;;;18.40;9.90;;;;;;;;;;5040254;28;20070;-77
2023/03/02 02:07:41;;;;;;;18.50;10.13;;;;;;;;;;5056132;28;20769;-77
2023/03/02 02:10:08;;;;;;;20.77;10.57;;;;;;;;;;5039736;28;20271;-74
2023/03/02 02:12:34;;;;;;;20.23;11.03;;;;;;;;;;5037772;28;20612;-77
2023/03/02 02:15:00;;;;;;;21.30;11.20;;;;;;;;;;5055937;28;20282;-77
2023/03/02 02:17:28;;;;;;;22.33;10.33;;;;;;;;;;5055633;28;20043;-77
2023/03/02 02:19:54;;;;;;;18.97;10.33;;;;;;;;;;5056097;28;20294;-76
2023/03/02 02:22:29;;;;;;;18.30;11.03;;;;;;;;;;5056064;28;20271;-76
2023/03/02 02:24:58;;;;;;;23.13;12.20;;;;;;;;;;5056212;28;20285;-76
2023/03/02 02:27:32;;;;;;;18.37;10.43;;;;;;;;;;5055409;28;20298;-76
2023/03/02 02:30:01;;;;;;;20.00;10.50;;;;;;;;;;5047005;28;20678;-77
2023/03/02 02:32:29;;;;;;;19.03;11.37;;;;;;;;;;5055546;28;20287;-76
2023/03/02 02:35:17;;;;;;;20.77;11.37;;;;;;;;;;5038017;28;20388;-77
2023/03/02 02:37:49;;;;;;;19.97;10.10;;;;;;;;;;5054973;28;20817;-76
2023/03/02 02:40:16;;;;;;;19.25;10.40;;;;;;;;;;5052715;28;20268;-75
2023/03/02 02:42:44;;;;;;;21.80;10.60;;;;;;;;;;5060736;28;20028;-77
2023/03/02 02:45:19;;;;;;;18.67;10.37;;;;;;;;;;5057620;28;20301;-77
2023/03/02 02:47:46;;;;;;;26.30;11.63;;;;;;;;;;5075707;28;20661;-77
2023/03/02 02:50:20;;;;;;;20.20;10.53;;;;;;;;;;5057801;28;20364;-76
2023/03/02 02:52:49;;;;;;;23.30;11.03;;;;;;;;;;5075578;28;20357;-77
2023/03/02 02:55:19;;;;;;;23.90;11.43;;;;;;;;;;5057385;28;20262;-76
2023/03/02 02:57:45;;;;;;;21.80;10.43;;;;;;;;;;5054140;28;20326;-77
2023/03/02 03:00:16;;;;;;;22.40;11.63;;;;;;;;;;5054101;28;20323;-77
2023/03/02 03:02:44;;;;;;;19.40;10.83;;;;;;;;;;5060720;28;20309;-76
2023/03/02 03:05:13;;;;;;;21.37;11.20;;;;;;;;;;5072587;28;20283;-77
2023/03/02 03:07:39;;;;;;;21.37;10.67;;;;;;;;;;5051752;28;20259;-77
2023/03/02 03:10:12;;;;;;;16.97;10.43;;;;;;;;;;5074791;28;20269;-77
2023/03/02 03:12:40;;;;;;;22.17;10.73;;;;;;;;;;5072966;28;20274;-77
2023/03/02 03:15:07;;;;;;;22.83;11.50;;;;;;;;;;5057148;28;20547;-77
2023/03/02 03:17:33;;;;;;;23.73;12.70;;;;;;;;;;5072990;28;20356;-77
2023/03/02 03:20:05;;;;;;;22.83;11.07;;;;;;;;;;5057457;28;20313;-77
2023/03/02 03:22:31;;;;;;;24.27;11.50;;;;;;;;;;5056888;28;20490;-77
2023/03/02 03:24:57;;;;;;;22.23;10.83;;;;;;;;;;5056991;28;20341;-77
2023/03/02 03:27:23;;;;;;;19.43;11.13;;;;;;;;;;5058108;28;20274;-77
2023/03/02 03:29:49;;;;;;;23.60;11.10;;;;;;;;;;5052894;28;20266;-77
2023/03/02 03:32:18;;;;;;;21.50;11.13;;;;;;;;;;5056909;28;20282;-78
2023/03/02 03:34:44;;;;;;;21.73;11.57;;;;;;;;;;5056917;28;20338;-77
2023/03/02 03:37:14;;;;;;;21.27;11.53;;;;;;;;;;5074809;28;20588;-76
2023/03/02 03:39:40;;;;;;;21.67;12.20;;;;;;;;;;5047900;28;20295;-77
2023/03/02 03:42:07;;;;;;;21.53;11.30;;;;;;;;;;5071271;28;20259;-77
2023/03/02 03:44:33;;;;;;;24.30;12.87;;;;;;;;;;5057119;28;20267;-77
2023/03/02 03:46:59;;;;;;;22.63;11.83;;;;;;;;;;5046196;28;20341;-77
2023/03/02 03:49:26;;;;;;;21.60;12.10;;;;;;;;;;5072693;28;20251;-77
2023/03/02 03:51:52;;;;;;;23.40;12.10;;;;;;;;;;5073358;28;20274;-77
2023/03/02 03:54:20;;;;;;;23.03;11.10;;;;;;;;;;5056071;28;20259;-77
2023/03/02 03:56:47;;;;;;;23.33;10.87;;;;;;;;;;5067175;28;20283;-77
2023/03/02 03:59:15;;;;;;;22.07;11.17;;;;;;;;;;5050911;28;20412;-77
2023/03/02 04:01:43;;;;;;;23.63;11.67;;;;;;;;;;5052937;28;20714;-77
2023/03/02 04:04:11;;;;;;;22.10;11.47;;;;;;;;;;5049447;28;20351;-77
2023/03/02 04:06:39;;;;;;;27.70;15.60;;;;;;;;;;5070424;28;20278;-77
2023/03/02 04:09:06;;;;;;;26.33;12.10;;;;;;;;;;5057195;28;20769;-77
2023/03/02 04:11:36;;;;;;;24.40;11.53;;;;;;;;;;5056241;28;20730;-77
2023/03/02 04:14:02;;;;;;;23.37;11.33;;;;;;;;;;5055132;28;20345;-77
2023/03/02 04:16:31;;;;;;;22.07;12.17;;;;;;;;;;5076978;28;20301;-77
2023/03/02 04:18:57;;;;;;;24.43;13.33;;;;;;;;;;5043244;28;20267;-76
2023/03/02 04:21:23;;;;;;;22.93;11.90;;;;;;;;;;5045965;28;20275;-76
2023/03/02 04:23:52;;;;;;;22.43;11.60;;;;;;;;;;5042865;28;20738;-76
2023/03/02 04:26:18;;;;;;;23.30;11.23;;;;;;;;;;5054028;28;20283;-76
2023/03/02 04:28:44;;;;;;;20.70;11.23;;;;;;;;;;5055226;28;20275;-76
2023/03/02 04:31:10;;;;;;;22.70;12.20;;;;;;;;;;5035387;28;20295;-76
2023/03/02 04:33:37;;;;;;;20.47;12.03;;;;;;;;;;5039345;28;20340;-77
2023/03/02 04:36:04;;;;;;;26.80;11.53;;;;;;;;;;5054567;28;20082;-76
2023/03/02 04:38:30;;;;;;;25.17;12.20;;;;;;;;;;5036655;28;20298;-76
2023/03/02 04:40:57;;;;;;;22.00;11.20;;;;;;;;;;5055351;28;20272;-77
2023/03/02 04:43:24;;;;;;;26.57;12.33;;;;;;;;;;5036376;28;20280;-77
2023/03/02 04:45:50;;;;;;;20.97;11.63;;;;;;;;;;5035925;28;20754;-77
2023/03/02 04:48:16;;;;;;;24.93;12.47;;;;;;;;;;5052891;28;20294;-77
2023/03/02 04:50:45;;;;;;;22.53;11.87;;;;;;;;;;5036679;28;20388;-77
2023/03/02 04:53:11;;;;;;;23.17;12.17;;;;;;;;;;5038949;28;20286;-77
2023/03/02 04:55:37;;;;;;;21.67;11.40;;;;;;;;;;5038944;28;20325;-77
2023/03/02 04:58:04;;;;;;;25.67;13.07;;;;;;;;;;5052087;28;20267;-76
2023/03/02 05:00:32;;;;;;;26.53;12.70;;;;;;;;;;5033971;28;20286;-76
2023/03/02 05:02:58;;;;;;;23.13;12.20;;;;;;;;;;5036467;28;20366;-77
2023/03/02 05:05:25;;;;;;;21.27;11.67;;;;;;;;;;5056199;28;20271;-76
2023/03/02 05:07:51;;;;;;;23.47;12.40;;;;;;;;;;5056397;28;20275;-76
2023/03/02 05:10:18;;;;;;;27.33;12.33;;;;;;;;;;5055990;28;20318;-76
2023/03/02 05:12:56;;;;;;;25.43;13.03;;;;;;;;;;5059038;28;20290;-77
2023/03/02 05:15:29;;;;;;;24.27;12.57;;;;;;;;;;5043810;28;20283;-75
2023/03/02 05:17:55;;;;;;;21.37;11.57;;;;;;;;;;5056183;28;20276;-76
2023/03/02 05:20:26;;;;;;;30.23;13.63;;;;;;;;;;5044159;28;20332;-76
2023/03/02 05:22:52;;;;;;;27.67;13.03;;;;;;;;;;5057412;28;20274;-77
2023/03/02 05:25:18;;;;;;;26.00;13.97;;;;;;;;;;5055255;28;20278;-77
2023/03/02 05:27:44;;;;;;;22.53;12.20;;;;;;;;;;5045835;28;20276;-76
2023/03/02 05:30:10;;;;;;;28.17;13.27;;;;;;;;;;5057006;28;20131;-76
2023/03/02 05:32:36;;;;;;;26.73;13.13;;;;;;;;;;5057061;28;20113;-76
2023/03/02 05:35:02;;;;;;;29.67;13.73;;;;;;;;;;5038603;28;20279;-76
2023/03/02 05:37:31;;;;;;;27.83;13.87;;;;;;;;;;5057114;28;20605;-77
2023/03/02 05:39:57;;;;;;;25.00;12.40;;;;;;;;;;5054056;28;20271;-77
2023/03/02 05:42:23;;;;;;;32.80;14.13;;;;;;;;;;5057845;28;20263;-76
2023/03/02 05:44:49;;;;;;;31.17;13.57;;;;;;;;;;5056333;28;20087;-77
2023/03/02 05:47:15;;;;;;;27.73;13.20;;;;;;;;;;5056448;28;20279;-77
2023/03/02 05:49:41;;;;;;;23.33;11.83;;;;;;;;;;5042848;28;20287;-76
2023/03/02 05:52:07;;;;;;;24.37;12.50;;;;;;;;;;5042410;28;20993;-77
2023/03/02 05:54:33;;;;;;;21.03;11.67;;;;;;;;;;5054995;28;20278;-76
2023/03/02 05:56:59;;;;;;;28.63;12.57;;;;;;;;;;5039791;28;20025;-76
2023/03/02 05:59:25;;;;;;;25.83;12.00;;;;;;;;;;5038438;28;20131;-77
2023/03/02 06:01:57;;;;;;;23.90;11.83;;;;;;;;;;5056606;28;20278;-75
2023/03/02 06:04:23;;;;;;;26.75;11.90;;;;;;;;;;5039257;28;20123;-77
2023/03/02 06:06:49;;;;;;;25.03;12.33;;;;;;;;;;5039218;28;20028;-77
2023/03/02 06:09:15;;;;;;;24.00;12.87;;;;;;;;;;5046351;28;20280;-77
2023/03/02 06:11:41;;;;;;;31.43;13.83;;;;;;;;;;5056668;28;20788;-77
2023/03/02 06:14:07;;;;;;;27.43;13.53;;;;;;;;;;5054533;28;20302;-76
2023/03/02 06:16:34;;;;;;;28.47;13.77;;;;;;;;;;5053371;28;20432;-76
2023/03/02 06:19:00;;;;;;;34.13;14.87;;;;;;;;;;5055884;28;20297;-76
2023/03/02 06:21:26;;;;;;;28.00;13.17;;;;;;;;;;5053560;28;21927;-76
2023/03/02 06:23:52;;;;;;;27.83;13.33;;;;;;;;;;5046551;28;20025;-77
2023/03/02 06:26:18;;;;;;;25.90;13.57;;;;;;;;;;5042290;28;20276;-77
2023/03/02 06:28:44;;;;;;;25.83;12.90;;;;;;;;;;5038253;28;20279;-76
2023/03/02 06:31:13;;;;;;;35.33;16.33;;;;;;;;;;5048285;28;20279;-76
2023/03/02 06:33:39;;;;;;;45.13;16.27;;;;;;;;;;5046568;28;20274;-77
2023/03/02 06:36:05;;;;;;;53.07;16.50;;;;;;;;;;5055781;28;20317;-76
2023/03/02 06:38:31;;;;;;;40.37;15.20;;;;;;;;;;5054299;28;20061;-76
2023/03/02 06:40:58;;;;;;;24.87;13.83;;;;;;;;;;5032671;28;20571;-77
2023/03/02 06:43:26;;;;;;;31.33;13.83;;;;;;;;;;5045812;28;20409;-77
2023/03/02 06:45:52;;;;;;;27.87;13.77;;;;;;;;;;5055184;28;20278;-76
2023/03/02 06:48:18;;;;;;;30.73;15.37;;;;;;;;;;5054708;28;20291;-76
2023/03/02 06:50:44;;;;;;;28.70;13.57;;;;;;;;;;5054254;28;20075;-77
2023/03/02 06:53:10;;;;;;;26.70;14.30;;;;;;;;;;5043549;28;20376;-77
2023/03/02 06:55:36;;;;;;;27.47;14.80;;;;;;;;;;5058319;28;20053;-76
2023/03/02 06:58:02;;;;;;;32.60;14.20;;;;;;;;;;5047082;28;20306;-78
2023/03/02 07:00:28;;;;;;;39.33;14.43;;;;;;;;;;5056653;28;20765;-76
2023/03/02 07:02:55;;;;;;;29.80;13.43;;;;;;;;;;5057657;28;20029;-77
2023/03/02 07:05:23;;;;;;;37.47;14.47;;;;;;;;;;5042246;28;20345;-77
2023/03/02 07:07:49;;;;;;;31.00;12.43;;;;;;;;;;5054764;28;20313;-76
2023/03/02 07:10:15;;;;;;;22.90;11.57;;;;;;;;;;5054142;28;20278;-77
2023/03/02 07:12:41;;;;;;;20.07;11.43;;;;;;;;;;5055354;28;20275;-77
2023/03/02 07:15:10;;;;;;;21.43;11.70;;;;;;;;;;5053385;28;20360;-76
2023/03/02 07:17:36;;;;;;;22.13;12.23;;;;;;;;;;5040384;28;20302;-77
2023/03/02 07:20:04;;;;;;;22.97;11.13;;;;;;;;;;5046411;28;20298;-76
2023/03/02 07:22:32;;;;;;;27.93;13.53;;;;;;;;;;5053995;28;20275;-76
2023/03/02 07:24:58;;;;;;;24.83;11.97;;;;;;;;;;5035032;28;20276;-76
2023/03/02 07:27:24;;;;;;;22.77;11.93;;;;;;;;;;5046267;28;20287;-76
2023/03/02 07:29:50;;;;;;;26.43;13.03;;;;;;;;;;5054245;28;20162;-77
2023/03/02 07:32:18;;;;;;;27.67;12.47;;;;;;;;;;5036838;28;20759;-77
2023/03/02 07:34:44;;;;;;;23.80;12.00;;;;;;;;;;5055224;28;20028;-76
2023/03/02 07:37:10;;;;;;;24.27;11.93;;;;;;;;;;5054619;28;20348;-76
2023/03/02 07:39:36;;;;;;;20.00;11.17;;;;;;;;;;5052698;28;20052;-76
2023/03/02 07:42:03;;;;;;;26.77;11.67;;;;;;;;;;5052677;28;20031;-77
2023/03/02 07:44:32;;;;;;;25.40;12.23;;;;;;;;;;5053903;28;20032;-75
2023/03/02 07:46:58;;;;;;;27.57;11.00;;;;;;;;;;5056456;28;20279;-77
2023/03/02 07:49:24;;;;;;;22.97;11.67;;;;;;;;;;5055032;28;20274;-79
2023/03/02 07:51:50;;;;;;;18.47;9.77;;;;;;;;;;5041100;28;20279;-76
2023/03/02 07:54:16;;;;;;;21.27;10.23;;;;;;;;;;5039235;28;20029;-76
2023/03/02 07:56:42;;;;;;;25.30;10.30;;;;;;;;;;5044804;28;20298;-76
2023/03/02 07:59:08;;;;;;;16.83;9.83;;;;;;;;;;5053347;28;20792;-76
2023/03/02 08:01:34;;;;;;;17.20;9.07;;;;;;;;;;5040300;28;20311;-76
2023/03/02 08:04:00;;;;;;;24.57;9.30;;;;;;;;;;5045104;28;20307;-76
2023/03/02 08:06:26;;;;;;;20.83;9.60;;;;;;;;;;5052131;28;20461;-77
2023/03/02 08:08:52;;;;;;;17.63;8.73;;;;;;;;;;5051978;28;20067;-76
2023/03/02 08:11:18;;;;;;;18.33;9.63;;;;;;;;;;5054432;28;20033;-76
2023/03/02 08:13:44;;;;;;;17.90;9.17;;;;;;;;;;5055284;28;20037;-76
2023/03/02 08:16:11;;;;;;;19.53;10.20;;;;;;;;;;5042775;28;20340;-75
2023/03/02 08:18:37;;;;;;;18.97;10.13;;;;;;;;;;5035370;28;20271;-76
2023/03/02 08:21:04;;;;;;;20.03;9.43;;;;;;;;;;5053117;28;20314;-76
2023/03/02 08:23:32;;;;;;;15.53;9.43;;;;;;;;;;5051385;28;20299;-76
2023/03/02 08:25:58;;;;;;;17.27;10.27;;;;;;;;;;5053366;28;20325;-75
2023/03/02 08:28:24;;;;;;;24.47;10.90;;;;;;;;;;5052596;28;20892;-76
2023/03/02 08:31:00;;;;;;;19.43;10.90;;;;;;;;;;5036611;28;20035;-76
2023/03/02 08:33:27;;;;;;;19.73;9.97;;;;;;;;;;5036592;28;20037;-76
2023/03/02 08:35:58;;;;;;;19.93;9.80;;;;;;;;;;5053593;28;20294;-76
2023/03/02 08:38:24;;;;;;;19.63;9.80;;;;;;;;;;5055023;28;20514;-77
2023/03/02 08:40:51;;;;;;;18.43;9.33;;;;;;;;;;5040185;28;20303;-76
2023/03/02 08:43:18;;;;;;;20.50;10.60;;;;;;;;;;5070077;28;20399;-76
2023/03/02 08:45:43;;;;;;;21.67;9.33;;;;;;;;;;5077166;28;20308;-77
2023/03/02 08:48:09;;;;;;;17.57;9.23;;;;;;;;;;5059773;28;20270;-77
2023/03/02 08:50:35;;;;;;;25.47;10.33;;;;;;;;;;5059211;28;20033;-76
2023/03/02 08:53:04;;;;;;;21.63;10.33;;;;;;;;;;5060323;28;20036;-77
2023/03/02 08:55:30;;;;;;;20.70;10.53;;;;;;;;;;5077280;28;20020;-76
2023/03/02 08:57:56;;;;;;;20.13;11.53;;;;;;;;;;5068935;28;20262;-77
2023/03/02 09:00:22;;;;;;;22.67;9.60;;;;;;;;;;5059338;28;20044;-77
2023/03/02 09:02:48;;;;;;;18.87;10.03;;;;;;;;;;5068913;28;20254;-76
2023/03/02 09:05:14;;;;;;;17.73;9.33;;;;;;;;;;5043411;28;20321;-76
2023/03/02 09:07:40;;;;;;;20.07;9.83;;;;;;;;;;5053813;28;20361;-77
2023/03/02 09:10:06;;;;;;;15.30;8.97;;;;;;;;;;5040048;28;20120;-77
2023/03/02 09:12:32;;;;;;;21.57;9.50;;;;;;;;;;5047020;28;20106;-77
2023/03/02 09:14:58;;;;;;;18.30;9.90;;;;;;;;;;5076738;28;20611;-76
2023/03/02 09:17:24;;;;;;;15.33;8.70;;;;;;;;;;5058613;28;20362;-77
2023/03/02 09:19:52;;;;;;;20.40;9.73;;;;;;;;;;5052868;28;20029;-77
2023/03/02 09:22:18;;;;;;;20.43;11.07;;;;;;;;;;5061978;28;20025;-77
2023/03/02 09:24:46;;;;;;;18.47;9.77;;;;;;;;;;5059155;28;20650;-77
2023/03/02 09:27:12;;;;;;;21.83;9.30;;;;;;;;;;5058979;28;20270;-77
2023/03/02 09:29:41;;;;;;;17.80;9.57;;;;;;;;;;5063503;28;20254;-77
2023/03/02 09:32:07;;;;;;;18.10;9.93;;;;;;;;;;5055855;28;20032;-76
2023/03/02 09:34:35;;;;;;;20.03;10.73;;;;;;;;;;5061705;28;20267;-77
2023/03/02 09:37:04;;;;;;;18.00;9.77;;;;;;;;;;5049614;28;20382;-77
2023/03/02 09:39:30;;;;;;;21.70;10.73;;;;;;;;;;5052673;28;20259;-77
2023/03/02 09:42:05;;;;;;;17.37;10.07;;;;;;;;;;5061734;28;20266;-77
2023/03/02 09:44:39;;;;;;;18.83;10.27;;;;;;;;;;5059248;28;20017;-77
2023/03/02 09:47:14;;;;;;;32.27;10.67;;;;;;;;;;5061720;28;20038;-77
2023/03/02 09:49:52;;;;;;;19.30;10.07;;;;;;;;;;5051064;28;20425;-77
2023/03/02 09:52:29;;;;;;;16.53;9.27;;;;;;;;;;5059134;28;20278;-77
2023/03/02 09:54:55;;;;;;;16.67;9.33;;;;;;;;;;5057215;28;20668;-77
2023/03/02 09:57:33;;;;;;;20.00;10.40;;;;;;;;;;5072440;28;20290;-77
2023/03/02 10:00:01;;;;;;;22.27;9.57;;;;;;;;;;5072299;28;20032;-77
2023/03/02 10:02:28;;;;;;;17.07;9.37;;;;;;;;;;5071436;28;20028;-77
2023/03/02 10:04:56;;;;;;;20.33;10.10;;;;;;;;;;5058730;28;20020;-77
2023/03/02 10:07:27;;;;;;;14.33;8.40;;;;;;;;;;5073410;28;20029;-77
2023/03/02 10:09:54;;;;;;;15.97;9.10;;;;;;;;;;5047659;28;20056;-77
2023/03/02 10:12:38;;;;;;;18.33;10.50;;;;;;;;;;5043454;28;20032;-77
2023/03/02 10:15:12;;;;;;;16.50;9.90;;;;;;;;;;5051803;28;20067;-77
2023/03/02 10:17:56;;;;;;;15.27;8.93;;;;;;;;;;5071308;28;20083;-77
2023/03/02 10:20:25;;;;;;;18.13;9.43;;;;;;;;;;5058028;28;20544;-76
2023/03/02 10:22:57;;;;;;;17.50;8.80;;;;;;;;;;5041515;28;20041;-77
2023/03/02 10:26:02;;;;;;;14.07;8.70;;;;;;;;;;5057781;28;20040;-77
2023/03/02 10:28:33;;;;;;;16.50;9.10;;;;;;;;;;4943426;28;20050;-77
2023/03/02 10:31:13;;;;;;;14.00;8.13;;;;;;;;;;4956082;28;20138;-77
2023/03/02 10:33:40;;;;;;;13.67;7.93;;;;;;;;;;5016917;28;20271;-77
2023/03/02 10:36:17;;;;;;;20.83;9.47;;;;;;;;;;5054359;28;20097;-77
2023/03/02 10:38:44;;;;;;;20.10;9.33;;;;;;;;;;5046227;28;20152;-77
2023/03/02 10:41:15;;;;;;;20.37;9.63;;;;;;;;;;5042039;28;20722;-77
2023/03/02 10:44:07;;;;;;;17.23;9.00;;;;;;;;;;5053940;28;20025;-77
2023/03/02 10:46:43;;;;;;;11.88;6.95;;;;;;;;;;5052983;28;20127;-77
2023/03/02 10:49:21;;;;;;;17.67;8.73;;;;;;;;;;5038067;28;20037;-75
2023/03/02 10:51:56;;;;;;;16.60;8.17;;;;;;;;;;5038165;28;20036;-75
2023/03/02 10:54:24;;;;;;;14.73;9.10;;;;;;;;;;5054715;28;20033;-77
2023/03/02 10:56:52;;;;;;;17.60;9.23;;;;;;;;;;5055206;28;20032;-75
2023/03/02 10:59:32;;;;;;;16.13;8.50;;;;;;;;;;5035818;28;20027;-77
2023/03/02 11:02:02;;;;;;;18.33;9.53;;;;;;;;;;5054026;28;20024;-77
2023/03/02 11:04:31;;;;;;;14.77;8.60;;;;;;;;;;5054613;28;20017;-77
2023/03/02 11:07:07;;;;;;;13.70;8.13;;;;;;;;;;5046372;28;20079;-76
2023/03/02 11:09:33;;;;;;;15.10;8.67;;;;;;;;;;5055413;28;20331;-77
2023/03/02 11:12:01;;;;;;;13.57;8.13;;;;;;;;;;5054745;28;20097;-77
2023/03/02 11:14:27;;;;;;;17.67;9.00;;;;;;;;;;5045941;28;20032;-77
2023/03/02 11:16:54;;;;;;;12.93;8.50;;;;;;;;;;5054401;28;21764;-77
2023/03/02 11:19:46;;;;;;;16.13;8.37;;;;;;;;;;5045735;28;20048;-77
2023/03/02 11:22:21;;;;;;;13.98;8.48;;;;;;;;;;5052247;28;20142;-75
2023/03/02 11:24:53;;;;;;;14.87;8.57;;;;;;;;;;5039186;28;20098;-75
2023/03/02 11:27:26;;;;;;;14.85;8.60;;;;;;;;;;5040825;28;20043;-75
2023/03/02 11:29:52;;;;;;;17.83;9.07;;;;;;;;;;5054135;28;20037;-75
2023/03/02 11:32:21;;;;;;;15.70;9.53;;;;;;;;;;5053885;28;20039;-75
2023/03/02 11:35:06;;;;;;;15.10;8.03;;;;;;;;;;5041250;28;20538;-75
2023/03/02 11:37:51;;;;;;;13.43;7.67;;;;;;;;;;5045002;28;20039;-75
2023/03/02 11:40:21;;;;;;;16.67;8.33;;;;;;;;;;5044932;28;20038;-75
2023/03/02 11:42:47;;;;;;;14.03;9.13;;;;;;;;;;5053735;28;20482;-75
2023/03/02 11:45:13;;;;;;;11.83;6.87;;;;;;;;;;5039489;28;20474;-75
2023/03/02 11:47:41;;;;;;;14.37;8.67;;;;;;;;;;5037057;28;20047;-75
2023/03/02 11:50:10;;;;;;;14.03;8.23;;;;;;;;;;5054403;28;20037;-76
2023/03/02 11:52:41;;;;;;;16.37;7.73;;;;;;;;;;5035732;28;20037;-76
2023/03/02 11:55:25;;;;;;;14.20;8.03;;;;;;;;;;5054797;28;20060;-76
2023/03/02 11:57:52;;;;;;;13.60;8.20;;;;;;;;;;5058184;28;20048;-75
2023/03/02 12:00:21;;;;;;;17.63;8.97;;;;;;;;;;5052898;28;20033;-75
2023/03/02 12:02:57;;;;;;;13.13;8.07;;;;;;;;;;5046771;28;20505;-74
2023/03/02 12:05:24;;;;;;;14.20;7.93;;;;;;;;;;5037905;28;20463;-75
2023/03/02 12:08:20;;;;;;;13.23;8.23;;;;;;;;;;5037340;28;20410;-75
2023/03/02 12:10:55;;;;;;;13.57;7.97;;;;;;;;;;5035040;28;20048;-75
2023/03/02 12:13:24;;;;;;;15.67;8.47;;;;;;;;;;5044909;28;20043;-75
2023/03/02 12:15:55;;;;;;;19.13;9.33;;;;;;;;;;5052890;28;20135;-75
2023/03/02 12:18:21;;;;;;;19.80;8.37;;;;;;;;;;5056273;28;20033;-75
2023/03/02 12:21:07;;;;;;;18.23;9.17;;;;;;;;;;5053255;28;20037;-75
2023/03/02 12:23:57;;;;;;;12.40;7.70;;;;;;;;;;5058355;28;20465;-75
2023/03/02 12:26:25;;;;;;;14.60;8.93;;;;;;;;;;5020905;28;20127;-75
2023/03/02 12:29:03;;;;;;;18.77;10.20;;;;;;;;;;5053626;28;20029;-75
2023/03/02 12:31:50;;;;;;;15.60;8.20;;;;;;;;;;5054557;28;20040;-74
2023/03/02 12:34:22;;;;;;;13.37;7.73;;;;;;;;;;5050657;28;20456;-75
2023/03/02 12:36:48;;;;;;;11.43;7.13;;;;;;;;;;5053091;28;20036;-75
2023/03/02 12:39:24;;;;;;;14.43;8.07;;;;;;;;;;5036389;28;20033;-75
2023/03/02 12:41:55;;;;;;;13.47;8.03;;;;;;;;;;5044487;28;20047;-76
2023/03/02 12:44:30;;;;;;;13.60;7.43;;;;;;;;;;5052933;28;20021;-73
2023/03/02 12:46:58;;;;;;;16.80;8.23;;;;;;;;;;5053688;28;20032;-75
2023/03/02 12:49:50;;;;;;;14.33;8.10;;;;;;;;;;5040708;28;20112;-74
2023/03/02 12:52:32;;;;;;;14.48;7.63;;;;;;;;;;4982384;28;20064;-74
2023/03/02 12:55:03;;;;;;;14.45;7.25;;;;;;;;;;4962179;28;20925;-76
2023/03/02 12:57:29;;;;;;;16.97;7.63;;;;;;;;;;4964206;28;20058;-74
2023/03/02 12:59:57;;;;;;;14.67;7.87;;;;;;;;;;4982814;28;20098;-77
2023/03/02 13:02:27;;;;;;;14.97;8.00;;;;;;;;;;4982288;28;20031;-75
2023/03/02 13:04:54;;;;;;;14.27;7.33;;;;;;;;;;4961848;28;20423;-75
2023/03/02 13:07:28;;;;;;;11.47;6.07;;;;;;;;;;4981740;28;20035;-75
2023/03/02 13:09:56;;;;;;;13.17;7.33;;;;;;;;;;4983310;28;20850;-76
2023/03/02 13:12:22;;;;;;;11.30;7.27;;;;;;;;;;4982476;28;20053;-76
2023/03/02 13:14:53;;;;;;;12.77;7.57;;;;;;;;;;4959102;28;20035;-75
2023/03/02 13:17:21;;;;;;;11.87;6.60;;;;;;;;;;4958071;28;20046;-76
2023/03/02 13:19:49;;;;;;;11.67;7.00;;;;;;;;;;4982887;28;20038;-76
2023/03/02 13:22:15;;;;;;;15.30;7.40;;;;;;;;;;4982849;28;20141;-75
2023/03/02 13:24:45;;;;;;;11.83;7.20;;;;;;;;;;4965681;28;20042;-74
2023/03/02 13:27:22;;;;;;;11.17;6.77;;;;;;;;;;4968538;28;20030;-76
2023/03/02 13:29:48;;;;;;;9.03;5.03;;;;;;;;;;5027565;28;20063;-76
2023/03/02 13:32:16;;;;;;;10.00;6.63;;;;;;;;;;5048475;28;20033;-76
2023/03/02 13:34:48;;;;;;;25.53;8.33;;;;;;;;;;5057342;28;20052;-75
2023/03/02 13:37:32;;;;;;;15.23;7.47;;;;;;;;;;5055345;28;20075;-76
2023/03/02 13:39:59;;;;;;;11.90;6.37;;;;;;;;;;5055601;28;20056;-75
2023/03/02 13:42:27;;;;;;;10.77;6.90;;;;;;;;;;5050009;28;20029;-76
2023/03/02 13:44:53;;;;;;;12.10;7.00;;;;;;;;;;5056221;28;20028;-76
2023/03/02 13:47:25;;;;;;;12.10;5.87;;;;;;;;;;5047797;28;20029;-76
2023/03/02 13:49:53;;;;;;;12.20;6.10;;;;;;;;;;5058142;28;20029;-75
2023/03/02 13:52:27;;;;;;;14.40;7.23;;;;;;;;;;5042627;28;20354;-76
2023/03/02 13:54:56;;;;;;;9.63;5.87;;;;;;;;;;5059494;28;20055;-76
2023/03/02 13:57:28;;;;;;;17.67;6.67;;;;;;;;;;5058375;28;20031;-76
2023/03/02 13:59:54;;;;;;;9.98;5.35;;;;;;;;;;5060201;28;20095;-76
2023/03/02 14:02:22;;;;;;;10.87;6.87;;;;;;;;;;5061871;28;20048;-76
2023/03/02 14:04:48;;;;;;;9.90;5.80;;;;;;;;;;5045414;28;20035;-76
2023/03/02 14:07:16;;;;;;;14.87;6.83;;;;;;;;;;5043099;28;20029;-77
2023/03/02 14:09:42;;;;;;;11.27;6.73;;;;;;;;;;5041273;28;20027;-76
2023/03/02 14:12:13;;;;;;;9.53;5.97;;;;;;;;;;5059640;28;20365;-76
2023/03/02 14:14:39;;;;;;;12.40;5.80;;;;;;;;;;5041664;28;20029;-77
2023/03/02 14:17:13;;;;;;;9.63;5.70;;;;;;;;;;5045518;28;20112;-76
2023/03/02 14:19:39;;;;;;;10.90;5.90;;;;;;;;;;5041584;28;20048;-76
2023/03/02 14:22:05;;;;;;;12.63;6.73;;;;;;;;;;5041982;28;20365;-77
2023/03/02 14:24:31;;;;;;;8.50;5.97;;;;;;;;;;5055526;28;20347;-75
2023/03/02 14:26:57;;;;;;;11.70;6.50;;;;;;;;;;5056021;28;20040;-77
2023/03/02 14:29:30;;;;;;;13.63;5.13;;;;;;;;;;5039756;28;20029;-75
2023/03/02 14:31:59;;;;;;;16.23;6.07;;;;;;;;;;5056627;28;20127;-77
2023/03/02 14:34:25;;;;;;;9.87;4.73;;;;;;;;;;5057086;28;20033;-77